Time;durP1;ratioP1;P1;durP2;ratioP2;P2;SDS_P1;SDS_P2;PMS_P1;PMS_P2;Temp;Humidity;BMP_temperature;BMP_pressure;BME280_temperature;BME280_humidity;BME280_pressure;Samples;Min_cycle;Max_cycle;Signal;HPM_P1;HPM_P2
2022/09/23 00:01:55;;;;;;;7.85;4.65;;;6.70;99.90;;;5.35;100.00;101766.75;4894270;29;20629;-82
2022/09/23 00:04:34;;;;;;;10.40;4.78;;;6.80;99.90;;;5.40;100.00;101760.63;4912437;29;20044;-83
2022/09/23 00:07:55;;;;;;;;;;;;;;;;;;;;;
2022/09/23 00:10:54;;;;;;;11.60;5.55;;;6.90;99.90;;;5.53;100.00;101768.34;4908713;29;20042;-83
2022/09/23 00:14:16;;;;;;;8.70;4.68;;;6.90;99.90;;;5.55;100.00;101753.53;4915082;29;20127;-83
2022/09/23 00:17:24;;;;;;;9.23;4.85;;;7.00;99.90;;;5.63;100.00;101755.19;4941232;23;20112;-83
2022/09/23 00:20:35;;;;;;;6.05;3.53;;;7.00;99.90;;;5.63;100.00;101760.41;4906844;29;20091;-83
2022/09/23 00:27:25;;;;;;;;;;;;;;;;;;;;;
2022/09/23 00:29:54;;;;;;;9.48;5.13;;;6.80;99.90;;;5.44;100.00;101755.38;4879365;29;20638;-83
2022/09/23 00:36:33;;;;;;;15.80;5.78;;;6.80;99.90;;;5.44;100.00;101746.66;4905026;29;20043;-83
2022/09/23 00:43:56;;;;;;;;;;;;;;;;;;;;;
2022/09/23 00:46:45;;;;;;;10.43;4.35;;;6.80;99.90;;;5.46;100.00;101745.75;4802534;29;20591;-82
2022/09/23 00:50:14;;;;;;;6.15;4.50;;;6.90;99.90;;;5.52;100.00;101748.31;4806879;29;20071;-83
2022/09/23 00:57:24;;;;;;;4.55;2.38;;;6.90;99.90;;;5.50;100.00;101742.22;4850798;29;20499;-83
2022/09/23 01:00:34;;;;;;;4.55;3.13;;;6.80;99.90;;;5.37;100.00;101729.31;4838225;29;20064;-83
2022/09/23 01:04:32;;;;;;;6.90;4.00;;;6.70;99.90;;;5.27;100.00;101729.41;4862444;29;20041;-83
2022/09/23 01:11:43;;;;;;;;;;;;;;;;;;;;;
2022/09/23 01:26:23;;;;;;;7.95;3.90;;;6.90;99.90;;;5.48;100.00;101707.41;4917780;29;20054;-83
2022/09/23 01:41:25;;;;;;;7.55;3.70;;;6.90;99.90;;;5.60;100.00;101689.91;4778076;30;20069;-83
2022/09/23 01:48:02;;;;;;;5.50;3.40;;;;;;;5.64;100.00;101683.78;4795079;29;20753;-82
2022/09/23 01:51:46;;;;;;;;;;;;;;;;;;;;;
2022/09/23 01:54:54;;;;;;;8.13;2.67;;;7.10;99.90;;;5.69;100.00;101679.34;4797007;29;20042;-81
2022/09/23 01:58:15;;;;;;;5.10;2.88;;;7.10;99.90;;;5.69;100.00;101676.75;4897990;29;20507;-83
2022/09/23 02:01:24;;;;;;;3.90;2.85;;;7.10;99.90;;;5.65;100.00;101665.44;4842415;29;20447;-83
2022/09/23 02:05:13;;;;;;;;;;;;;;;;;;;;;
2022/09/23 02:09:03;;;;;;;5.68;2.70;;;7.00;99.90;;;5.64;100.00;101661.13;4793868;29;20161;-83
2022/09/23 02:12:34;;;;;;;8.10;2.65;;;7.00;99.90;;;5.64;100.00;101675.94;4840222;29;20046;-82
2022/09/23 02:16:21;;;;;;;4.55;2.60;;;;;;;5.53;100.00;101660.38;4839485;29;20045;-83
2022/09/23 02:19:14;;;;;;;4.50;2.45;;;;;;;5.34;100.00;101668.38;4792751;29;20047;-83
2022/09/23 02:27:03;;;;;;;5.75;2.28;;;6.40;99.90;;;4.97;100.00;101654.81;4778694;29;20812;-83
2022/09/23 02:30:14;;;;;;;3.92;2.50;;;;;;;4.85;100.00;101660.13;4800195;29;20074;-83
2022/09/23 02:33:34;;;;;;;7.38;2.70;;;6.20;99.90;;;4.74;100.00;101657.59;4899540;29;20032;-83
2022/09/23 02:48:04;;;;;;;8.27;2.90;;;6.10;99.90;;;4.79;100.00;101647.13;4945492;29;20432;-83
2022/09/23 02:50:46;;;;;;;5.55;3.08;;;6.20;99.90;;;4.84;100.00;101654.06;4910250;29;20593;-83
2022/09/23 02:53:55;;;;;;;9.07;3.30;;;6.30;99.90;;;4.87;100.00;101656.63;4947304;28;20043;-82
2022/09/23 02:58:55;;;;;;;3.88;2.60;;;6.30;99.90;;;4.93;100.00;101651.34;5019941;23;21228;-82
2022/09/23 03:01:39;;;;;;;2.75;2.10;;;6.40;99.90;;;4.99;100.00;101657.41;4970151;28;20042;-82
2022/09/23 03:04:37;;;;;;;6.00;2.75;;;6.40;99.90;;;4.96;100.00;101647.00;4978151;28;20059;-82
2022/09/23 03:07:36;;;;;;;5.22;2.65;;;6.40;99.90;;;4.96;100.00;101649.59;4961929;28;20062;-82
2022/09/23 03:10:40;;;;;;;6.47;3.13;;;6.40;99.90;;;4.98;100.00;101643.50;4967341;28;20035;-82
2022/09/23 03:13:53;;;;;;;3.53;2.70;;;6.40;99.90;;;4.99;100.00;101640.00;4966968;28;20035;-82
2022/09/23 03:27:45;;;;;;;4.73;2.70;;;6.40;99.90;;;5.05;100.00;101618.19;4787828;30;20134;-82
2022/09/23 03:37:16;;;;;;;;;;;;;;;;;;;;;
2022/09/23 03:41:23;;;;;;;5.05;2.65;;;6.50;99.90;;;5.08;100.00;101597.28;4814201;29;20090;-83
2022/09/23 03:44:07;;;;;;;7.55;2.30;;;6.50;99.90;;;5.09;100.00;101605.09;4789717;29;20050;-83
2022/09/23 03:50:13;;;;;;;3.13;2.28;;;6.50;99.90;;;5.11;100.00;101602.47;4879466;29;20498;-82
2022/09/23 03:53:03;;;;;;;;;;;;;;;;;;;;;
2022/09/23 03:55:45;;;;;;;4.25;2.10;;;;;;;4.91;100.00;101600.91;4968928;28;20031;-82
2022/09/23 03:58:15;;;;;;;3.47;2.58;;;;;;;4.77;100.00;101597.56;4932899;29;20027;-81
2022/09/23 04:01:24;;;;;;;6.43;3.38;;;6.10;99.90;;;4.65;100.00;101598.53;4957880;28;20074;-82
2022/09/23 04:04:04;;;;;;;5.30;2.42;;;6.10;99.90;;;4.63;100.00;101594.22;4972921;28;20069;-82
2022/09/23 04:06:45;;;;;;;5.90;3.10;;;;;;;4.62;100.00;101597.69;4942194;28;20043;-82
2022/09/23 04:09:43;;;;;;;3.80;2.90;;;;;;;4.64;100.00;101596.78;4958719;28;20043;-82
2022/09/23 04:16:24;;;;;;;3.83;2.47;;;6.10;99.90;;;4.63;100.00;101586.38;4901081;29;20047;-82
2022/09/23 04:19:46;;;;;;;;;;;;;;;;;;;;;
2022/09/23 04:26:24;;;;;;;;;;;;;;;;;;;;;
2022/09/23 04:28:54;;;;;;;6.15;2.35;;;;;;;4.72;100.00;101573.25;4879178;29;20047;-83
2022/09/23 04:31:36;;;;;;;3.80;2.60;;;6.10;99.90;;;4.71;100.00;101575.00;4867737;29;20568;-81
2022/09/23 04:34:34;;;;;;;3.45;2.95;;;;;;;4.69;100.00;101561.13;4860402;29;20080;-81
2022/09/23 04:40:55;;;;;;;9.30;3.13;;;6.10;99.90;;;4.62;100.00;101561.16;4918388;29;20056;-82
2022/09/23 04:44:04;;;;;;;8.07;2.47;;;;;;;4.66;100.00;101563.72;4916485;29;20226;-82
2022/09/23 04:49:14;;;;;;;4.72;2.70;;;6.10;99.90;;;4.75;100.00;101567.16;4992436;23;20059;-81
2022/09/23 04:52:35;;;;;;;6.40;2.97;;;6.20;99.90;;;4.79;100.00;101561.03;4960299;28;20488;-82
2022/09/23 04:55:34;;;;;;;5.55;2.85;;;6.20;99.90;;;4.84;100.00;101557.50;4903389;29;20058;-82
2022/09/23 04:58:15;;;;;;;5.20;2.50;;;6.20;99.90;;;4.89;100.00;101560.91;4921136;29;20040;-82
2022/09/23 05:01:47;;;;;;;8.85;2.75;;;6.30;99.90;;;4.93;100.00;101562.63;4908951;29;20039;-82
2022/09/23 05:04:45;;;;;;;;;;;;;;;;;;;;;
2022/09/23 05:07:34;;;;;;;5.72;2.65;;;6.30;99.90;;;5.03;100.00;101568.63;4895226;29;20047;-82
2022/09/23 05:10:15;;;;;;;3.45;2.63;;;6.30;99.90;;;5.04;100.00;101559.91;4884531;29;20119;-82
2022/09/23 05:13:23;;;;;;;4.32;2.90;;;6.40;99.90;;;5.12;100.00;101570.28;4897952;29;20039;-82
2022/09/23 05:16:35;;;;;;;;;;;6.40;99.90;;;5.16;100.00;101561.50;4898858;29;20041;-82
2022/09/23 05:19:04;;;;;;;6.30;2.80;;;6.50;99.90;;;5.25;100.00;101571.88;4945892;28;19941;-82
2022/09/23 05:22:15;;;;;;;12.02;2.78;;;6.50;99.90;;;5.29;100.00;101570.97;4938084;28;20142;-81
2022/09/23 05:25:23;;;;;;;4.78;2.70;;;6.60;99.90;;;5.34;100.00;101565.69;4941253;28;20066;-82
2022/09/23 05:28:54;;;;;;;4.00;2.65;;;6.60;99.90;;;5.50;100.00;101575.03;4926019;28;20049;-82
2022/09/23 05:32:04;;;;;;;4.78;3.53;;;6.80;99.90;;;5.63;100.00;101573.16;4934681;28;20035;-82
2022/09/23 05:34:31;;;;;;;7.63;3.30;;;6.80;99.90;;;5.74;100.00;101573.91;4900481;29;20031;-76
2022/09/23 05:36:57;;;;;;;6.53;2.97;;;6.90;99.90;;;5.86;100.00;101578.09;4915680;29;20528;-79
2022/09/23 05:39:23;;;;;;;8.57;2.70;;;7.00;99.90;;;5.95;100.00;101575.38;4931686;29;20031;-78
2022/09/23 05:41:54;;;;;;;15.23;4.03;;;7.10;99.90;;;6.13;100.00;101573.38;4916104;29;20039;-78
2022/09/23 05:44:20;;;;;;;18.70;3.35;;;7.20;99.90;;;6.21;100.00;101571.53;4935417;28;20062;-77
2022/09/23 05:46:46;;;;;;;7.03;3.25;;;7.30;99.90;;;6.38;100.00;101573.03;4954741;28;20042;-79
2022/09/23 05:49:12;;;;;;;5.22;3.00;;;7.40;99.90;;;6.61;100.00;101568.28;4921953;29;20042;-79
2022/09/23 05:51:38;;;;;;;4.07;2.30;;;7.60;99.90;;;6.72;100.00;101568.97;4937161;28;20047;-80
2022/09/23 05:54:09;;;;;;;4.18;2.33;;;7.70;99.90;;;6.86;100.00;101567.84;4935181;29;20625;-78
2022/09/23 05:56:36;;;;;;;2.25;1.80;;;7.90;99.90;;;7.58;100.00;101574.31;4936400;28;20060;-78
2022/09/23 05:59:03;;;;;;;2.50;1.90;;;8.10;99.90;;;7.78;98.95;101571.31;4940606;29;20026;-78
2022/09/23 06:01:42;;;;;;;5.60;1.90;;;8.20;99.90;;;7.65;97.08;101580.34;4956484;28;20027;-79
2022/09/23 06:04:12;;;;;;;2.30;1.80;;;8.40;99.90;;;7.76;96.47;101567.84;4941029;28;20035;-78
2022/09/23 06:06:41;;;;;;;10.02;2.70;;;8.50;99.90;;;8.38;94.95;101578.69;4938119;28;20041;-79
2022/09/23 06:09:12;;;;;;;5.53;1.80;;;8.80;99.90;;;9.30;90.31;101587.75;4941031;28;20034;-79
2022/09/23 06:11:39;;;;;;;5.28;1.65;;;9.00;99.90;;;8.83;88.29;101578.47;4940379;29;20049;-78
2022/09/23 06:14:12;;;;;;;2.83;1.70;;;9.20;99.90;;;8.90;88.96;101580.91;4941234;28;20086;-78
2022/09/23 06:16:38;;;;;;;4.85;2.22;;;9.30;99.90;;;9.04;88.02;101578.81;4975214;23;20055;-80
2022/09/23 06:19:04;;;;;;;6.22;2.08;;;9.50;99.90;;;10.78;84.28;101598.19;4962457;28;20111;-80
2022/09/23 06:21:40;;;;;;;3.05;1.75;;;9.90;99.90;;;10.68;80.27;101589.72;4930070;29;20539;-79
2022/09/23 06:24:09;;;;;;;2.67;1.70;;;10.30;99.90;;;11.04;79.39;101585.91;4931592;29;20511;-80
2022/09/23 06:26:36;;;;;;;4.65;2.05;;;10.70;99.90;;;13.13;74.80;101612.09;4928509;29;20027;-80
2022/09/23 06:29:11;;;;;;;5.70;1.80;;;11.60;99.90;;;16.75;64.52;101618.63;4930113;29;20043;-82
2022/09/23 06:31:39;;;;;;;3.10;1.65;;;13.00;99.90;;;19.55;56.51;101609.59;4927460;29;20062;-80
2022/09/23 06:34:12;;;;;;;2.90;1.42;;;14.70;99.90;;;21.71;51.38;101613.16;4928246;29;20071;-81
2022/09/23 06:36:40;;;;;;;1.80;1.17;;;16.40;99.90;;;22.94;48.08;101614.66;4929225;29;20109;-81
2022/09/23 06:39:06;;;;;;;3.22;1.38;;;17.80;99.90;;;24.05;45.96;101621.19;4912678;29;20120;-80
2022/09/23 06:41:41;;;;;;;3.30;1.42;;;18.90;99.90;;;24.75;44.37;101626.53;4927241;29;20028;-82
2022/09/23 06:44:07;;;;;;;4.07;1.50;;;19.80;99.90;;;24.75;44.10;101629.22;4943117;29;20492;-81
2022/09/23 06:46:34;;;;;;;4.28;1.25;;;20.40;99.90;;;24.52;43.48;101631.34;4930755;29;20044;-81
2022/09/23 06:49:12;;;;;;;2.40;1.30;;;20.80;99.90;;;24.89;42.91;101642.25;4929639;29;20038;-81
2022/09/23 06:51:38;;;;;;;11.98;1.50;;;21.30;99.90;;;24.67;43.07;101643.41;4943138;29;20039;-80
2022/09/23 06:54:04;;;;;;;4.07;1.23;;;21.50;98.80;;;25.01;42.54;101651.06;4927458;29;20042;-82
2022/09/23 06:56:53;;;;;;;1.85;1.17;;;22.10;99.90;;;26.06;41.58;101658.13;4912413;29;20047;-82
2022/09/23 06:59:19;;;;;;;2.05;1.20;;;22.70;99.00;;;26.34;40.65;101666.22;4919362;29;20103;-82
2022/09/23 07:01:46;;;;;;;3.70;1.30;;;23.30;98.40;;;26.76;40.38;101662.94;4945452;29;20397;-82
2022/09/23 07:04:18;;;;;;;4.22;1.17;;;23.80;97.20;;;27.27;39.50;101671.34;4927311;29;20039;-82
2022/09/23 07:06:43;;;;;;;2.45;1.38;;;24.30;97.10;;;27.08;39.26;101677.75;4926885;29;20139;-81
2022/09/23 07:09:12;;;;;;;2.92;1.30;;;24.60;95.80;;;27.33;39.10;101678.81;4927552;29;20028;-82
2022/09/23 07:11:38;;;;;;;5.90;1.48;;;24.90;94.40;;;27.00;39.03;101675.84;4912400;29;20024;-82
2022/09/23 07:14:12;;;;;;;2.55;1.42;;;25.20;95.10;;;27.20;38.28;101674.63;4927584;29;20032;-81
2022/09/23 07:16:39;;;;;;;1.80;1.33;;;25.50;94.40;;;27.76;38.25;101677.91;4911297;29;20036;-82
2022/09/23 07:19:04;;;;;;;3.75;1.13;;;25.80;93.80;;;27.50;38.70;101691.44;4942837;29;20074;-81
2022/09/23 07:21:38;;;;;;;4.07;1.27;;;26.10;93.20;;;27.57;38.79;101689.78;4911549;29;20027;-82
2022/09/23 07:24:07;;;;;;;5.15;1.52;;;26.20;92.40;;;27.07;38.68;101692.28;4913364;29;20418;-84
2022/09/23 07:26:33;;;;;;;1.60;1.20;;;25.80;92.00;;;25.55;40.78;101690.00;4953977;28;20491;-81
2022/09/23 07:29:11;;;;;;;4.22;1.38;;;25.40;92.00;;;25.35;40.84;101682.94;4938098;28;20032;-80
2022/09/23 07:31:37;;;;;;;2.80;1.60;;;24.90;90.70;;;23.91;42.47;101673.53;4908305;29;20488;-79
2022/09/23 07:34:03;;;;;;;2.92;1.05;;;;;;;23.78;43.00;101675.59;4944319;29;20031;-81
2022/09/23 07:36:39;;;;;;;5.07;1.20;;;24.00;91.60;;;23.55;43.34;101672.19;4945587;29;20044;-81
2022/09/23 07:39:07;;;;;;;3.33;1.40;;;23.90;93.00;;;23.59;42.86;101679.00;4911442;29;20028;-80
2022/09/23 07:41:43;;;;;;;6.07;1.50;;;24.00;93.70;;;23.94;42.70;101673.25;4940476;29;20024;-81
2022/09/23 07:44:10;;;;;;;3.65;1.40;;;24.10;92.20;;;23.99;42.74;101685.44;4925578;29;20035;-80
2022/09/23 07:46:41;;;;;;;4.25;1.20;;;24.20;93.10;;;23.98;42.86;101675.69;4926323;29;20032;-81
2022/09/23 07:49:06;;;;;;;4.63;1.48;;;24.40;93.00;;;24.12;42.91;101680.66;4911051;29;20083;-79
2022/09/23 07:51:38;;;;;;;3.67;1.40;;;24.60;93.00;;;24.39;41.95;101681.88;4926895;29;20047;-80
2022/09/23 07:54:08;;;;;;;2.55;1.15;;;24.80;92.40;;;24.48;41.73;101681.06;4947275;29;20106;-80
2022/09/23 07:56:36;;;;;;;5.25;1.38;;;24.90;92.20;;;24.42;41.68;101682.44;4929017;29;20516;-80
2022/09/23 07:59:03;;;;;;;2.55;1.40;;;24.90;92.10;;;24.41;42.04;101682.59;4929246;29;20035;-79
2022/09/23 08:01:32;;;;;;;2.17;1.15;;;25.00;92.80;;;24.69;42.06;101689.91;4926915;29;20027;-79
2022/09/23 08:04:35;;;;;;;2.83;1.23;;;25.30;91.30;;;24.74;41.89;101690.31;4926808;29;20028;-80
2022/09/23 08:07:03;;;;;;;3.13;1.42;;;25.50;91.60;;;24.75;41.99;101694.72;4923123;29;20147;-80
2022/09/23 08:09:41;;;;;;;2.10;1.40;;;25.60;92.00;;;25.04;41.69;101685.78;4954050;29;20070;-81
2022/09/23 08:12:21;;;;;;;2.97;1.58;;;25.70;91.30;;;24.89;41.70;101685.34;4934740;29;20031;-80
2022/09/23 08:14:46;;;;;;;3.80;1.27;;;25.80;90.00;;;24.38;42.04;101680.19;4933576;29;20039;-81
2022/09/23 08:17:13;;;;;;;4.05;1.30;;;25.70;90.20;;;24.38;41.87;101678.31;4933486;29;20034;-80
2022/09/23 08:19:39;;;;;;;3.95;1.58;;;25.60;90.90;;;24.34;42.44;101680.47;4919268;29;20443;-80
2022/09/23 08:22:12;;;;;;;2.50;1.42;;;25.50;90.70;;;24.24;42.50;101687.66;4915833;29;20032;-80
2022/09/23 08:24:38;;;;;;;4.40;1.48;;;25.30;90.40;;;23.91;42.37;101678.91;4916207;29;20660;-82
2022/09/23 08:27:04;;;;;;;2.25;1.25;;;25.30;91.60;;;24.38;42.50;101690.94;4934361;23;20055;-80
2022/09/23 08:29:29;;;;;;;1.65;1.10;;;25.40;91.00;;;24.58;42.65;101686.47;4942185;29;20040;-81
2022/09/23 08:31:58;;;;;;;6.18;1.30;;;25.60;91.40;;;24.68;41.77;101682.78;4943027;29;20039;-81
2022/09/23 08:34:27;;;;;;;6.50;1.60;;;25.70;91.30;;;24.63;42.08;101684.22;4943306;29;20031;-80
2022/09/23 08:36:53;;;;;;;4.10;1.20;;;25.50;90.80;;;24.11;42.71;101679.81;4944558;29;20552;-81
2022/09/23 08:39:19;;;;;;;2.22;1.30;;;25.10;91.30;;;23.93;43.28;101673.38;4927879;29;20035;-80
2022/09/23 08:42:01;;;;;;;3.17;0.98;;;24.80;91.50;;;23.32;43.33;101666.09;4944744;28;20624;-80
2022/09/23 08:45:10;;;;;;;6.43;1.30;;;24.30;91.60;;;22.69;44.31;101663.34;4946526;29;20083;-80
2022/09/23 08:48:04;;;;;;;7.05;1.20;;;23.70;92.40;;;22.12;45.46;101655.41;4928628;29;20051;-81
2022/09/23 08:50:47;;;;;;;2.75;1.15;;;23.10;92.80;;;21.87;46.61;101650.31;4942593;29;20072;-81
2022/09/23 08:53:31;;;;;;;2.92;1.30;;;22.80;94.40;;;21.88;47.62;101657.38;4944020;29;20750;-80
2022/09/23 08:56:02;;;;;;;2.25;0.93;;;22.60;94.30;;;21.74;47.14;101649.59;4945158;29;20035;-81
2022/09/23 08:58:43;;;;;;;1.77;1.10;;;22.40;94.00;;;21.54;47.64;101646.66;4942715;29;20032;-82
2022/09/23 09:01:46;;;;;;;1.52;0.80;;;22.20;94.40;;;21.56;47.41;101644.72;4924687;29;20035;-82
2022/09/23 09:04:43;;;;;;;2.08;0.95;;;22.10;93.60;;;21.25;47.09;101639.03;4923005;29;20095;-81
2022/09/23 09:07:17;;;;;;;5.50;1.02;;;21.90;94.40;;;21.27;47.62;101633.53;4942978;29;20047;-82
2022/09/23 09:10:18;;;;;;;1.80;1.00;;;21.80;95.00;;;21.16;47.76;101625.50;4937273;29;20039;-82
2022/09/23 09:13:09;;;;;;;1.42;1.10;;;21.70;94.70;;;21.03;49.09;101629.09;4921743;29;20464;-82
2022/09/23 09:15:53;;;;;;;2.85;1.10;;;21.50;95.60;;;20.83;48.54;101624.44;4934028;29;20031;-82
2022/09/23 09:18:26;;;;;;;4.82;0.90;;;21.30;95.10;;;20.53;49.58;101623.03;4918827;29;20071;-82
2022/09/23 09:21:14;;;;;;;2.15;0.90;;;21.20;96.00;;;20.35;50.19;101625.28;4918475;29;20042;-83
2022/09/23 09:24:18;;;;;;;3.63;1.05;;;21.00;95.60;;;19.93;49.18;101614.06;4935557;29;20040;-82
2022/09/23 09:26:47;;;;;;;2.45;0.88;;;20.80;95.20;;;19.85;50.26;101611.94;4958933;23;20043;-82
2022/09/23 09:29:40;;;;;;;1.25;0.77;;;20.50;94.70;;;19.44;50.75;101605.03;4928155;29;20050;-83
2022/09/23 09:32:45;;;;;;;4.82;0.80;;;20.40;96.90;;;19.63;51.17;101614.38;4952706;28;20043;-81
2022/09/23 09:35:46;;;;;;;2.45;1.20;;;20.40;97.20;;;19.61;51.55;101605.63;4951423;28;20043;-83
2022/09/23 09:38:12;;;;;;;1.35;0.77;;;20.30;96.80;;;19.65;51.32;101596.44;4953130;28;20035;-83
2022/09/23 09:40:53;;;;;;;3.40;0.80;;;20.40;97.20;;;19.71;51.98;101605.88;4941097;28;20121;-81
2022/09/23 09:43:30;;;;;;;1.38;0.80;;;20.40;96.80;;;19.76;50.95;101601.06;4954592;28;20446;-82
2022/09/23 09:46:41;;;;;;;2.47;0.80;;;20.40;97.30;;;19.79;51.28;101596.34;4939724;28;20031;-80
2022/09/23 09:49:41;;;;;;;3.38;0.98;;;20.50;95.70;;;19.75;49.52;101589.50;4947195;28;21049;-81
2022/09/23 09:52:34;;;;;;;1.80;0.90;;;20.50;94.50;;;19.72;49.80;101579.06;4950899;28;20123;-79
2022/09/23 09:55:16;;;;;;;2.22;0.60;;;20.60;96.10;;;19.87;50.05;101580.63;4951983;28;20015;-78
2022/09/23 09:57:52;;;;;;;2.05;0.73;;;20.50;95.30;;;19.71;49.87;101569.31;4931504;29;20031;-79
2022/09/23 10:00:38;;;;;;;2.10;0.63;;;20.50;96.30;;;19.69;50.18;101563.19;4931736;29;20050;-78
2022/09/23 10:03:24;;;;;;;7.90;0.90;;;20.40;94.60;;;19.53;49.78;101562.59;4931087;28;20043;-79
2022/09/23 10:05:56;;;;;;;1.92;0.95;;;20.30;95.90;;;19.54;50.54;101564.31;4949251;28;20038;-80
2022/09/23 10:08:39;;;;;;;2.92;0.90;;;20.30;95.20;;;19.49;50.16;101553.09;4932635;28;20113;-79
2022/09/23 10:11:14;;;;;;;2.35;0.98;;;20.20;96.00;;;19.46;51.34;101552.34;4940325;29;20036;-78
2022/09/23 10:14:03;;;;;;;1.30;0.63;;;20.30;95.90;;;19.73;49.47;101553.19;4945828;28;20082;-79
2022/09/23 10:16:33;;;;;;;1.48;0.70;;;20.40;93.00;;;19.81;46.77;101556.16;4935288;28;20024;-83
2022/09/23 10:19:29;;;;;;;2.83;0.77;;;20.50;94.10;;;19.89;48.16;101556.44;4954269;28;20028;-83
2022/09/23 10:22:13;;;;;;;1.75;0.80;;;20.40;95.10;;;19.56;49.19;101546.34;4933503;28;20052;-81
2022/09/23 10:24:48;;;;;;;2.72;0.80;;;20.40;95.50;;;19.63;49.21;101544.94;4937751;29;20047;-82
2022/09/23 10:27:15;;;;;;;2.05;0.80;;;20.40;95.00;;;19.56;49.69;101549.03;4937338;29;20515;-81
2022/09/23 10:29:52;;;;;;;2.53;0.65;;;20.30;94.60;;;19.54;48.71;101533.09;4920090;29;20031;-81
2022/09/23 10:32:43;;;;;;;;;;;20.30;94.70;;;19.64;48.23;101535.97;4937387;29;20027;-82
2022/09/23 10:35:22;;;;;;;2.03;0.90;;;20.40;94.50;;;19.73;48.23;101535.34;4937463;29;19937;-82
2022/09/23 10:38:12;;;;;;;4.80;0.63;;;20.40;94.00;;;19.48;47.17;101538.88;4925536;29;20047;-82
2022/09/23 10:47:10;;;;;;;2.00;0.80;;;20.20;94.40;;;19.47;48.13;101527.34;4945853;28;20086;-82
2022/09/23 10:50:19;;;;;;;5.28;1.13;;;20.20;93.40;;;19.26;47.08;101524.41;4940775;28;20035;-81
2022/09/23 10:53:18;;;;;;;1.00;0.80;;;20.00;93.70;;;19.20;48.22;101531.97;4939697;29;20047;-81
2022/09/23 10:56:36;;;;;;;1.15;0.60;;;20.00;94.50;;;19.32;47.44;101525.75;4949360;28;20099;-80
2022/09/23 10:59:18;;;;;;;;;;;20.00;94.80;;;19.63;46.27;101523.56;4957774;29;20031;-81
2022/09/23 11:02:13;;;;;;;5.90;0.90;;;20.20;94.30;;;19.78;45.58;101517.13;4931712;29;19918;-81
2022/09/23 11:05:14;;;;;;;2.50;0.90;;;20.50;93.70;;;20.14;46.41;101523.41;4950507;28;20035;-82
2022/09/23 11:08:02;;;;;;;4.10;0.90;;;20.70;93.10;;;20.13;45.97;101524.41;4956052;28;20501;-82
2022/09/23 11:11:08;;;;;;;3.17;0.90;;;20.70;92.60;;;19.98;45.19;101517.53;4945544;29;20624;-81
2022/09/23 11:14:26;;;;;;;1.38;0.70;;;20.60;92.50;;;19.77;45.69;101504.75;4939944;29;20094;-80
2022/09/23 11:17:27;;;;;;;1.40;0.80;;;20.50;92.80;;;19.70;45.77;101498.16;4937488;28;20047;-82
2022/09/23 11:20:20;;;;;;;5.57;0.70;;;20.40;92.50;;;19.65;46.99;101489.56;4940559;28;20046;-81
2022/09/23 11:23:23;;;;;;;3.95;1.00;;;20.30;92.70;;;19.62;45.65;101489.81;4956194;29;20436;-80
2022/09/23 11:26:56;;;;;;;3.53;0.80;;;20.20;92.10;;;19.32;45.48;101491.06;4948578;28;20039;-81
2022/09/23 11:29:41;;;;;;;2.05;0.70;;;20.00;92.60;;;19.28;46.50;101484.22;4943535;29;20063;-81
2022/09/23 11:32:43;;;;;;;1.38;0.60;;;20.00;91.60;;;19.22;44.00;101481.97;4956494;29;20051;-80
2022/09/23 11:35:18;;;;;;;0.57;0.50;;;19.90;90.40;;;19.12;43.82;101479.13;4945222;29;20035;-81
2022/09/23 11:38:13;;;;;;;4.20;0.98;;;19.80;92.20;;;19.14;45.12;101479.03;4939869;29;20126;-81
2022/09/23 11:40:50;;;;;;;8.52;0.80;;;19.80;91.60;;;18.95;45.26;101469.63;4940802;29;20108;-81
2022/09/23 11:43:33;;;;;;;1.92;0.70;;;19.60;92.50;;;18.86;45.95;101462.28;4929693;29;20046;-81
2022/09/23 11:46:45;;;;;;;1.55;0.70;;;19.60;91.50;;;18.87;44.42;101461.31;4931715;29;20031;-82
2022/09/23 11:49:33;;;;;;;1.30;0.73;;;19.50;92.00;;;18.80;45.59;101452.88;4938466;29;20045;-82
2022/09/23 11:52:18;;;;;;;1.50;0.82;;;19.40;92.20;;;18.56;46.21;101455.41;4954804;29;20066;-82
2022/09/23 11:55:15;;;;;;;2.53;0.55;;;19.30;92.30;;;18.52;46.37;101450.41;4953997;28;20035;-80
2022/09/23 11:58:18;;;;;;;2.23;0.90;;;19.20;92.70;;;18.41;45.77;101448.47;4953716;29;20270;-80
2022/09/23 12:00:58;;;;;;;1.58;0.80;;;19.20;92.60;;;18.35;45.68;101446.22;4937787;29;20069;-80
2022/09/23 12:03:47;;;;;;;1.23;0.70;;;19.10;92.40;;;18.21;46.13;101436.50;4922227;29;20500;-81
2022/09/23 12:06:58;;;;;;;9.02;0.73;;;18.90;92.70;;;17.94;46.65;101440.03;4953500;28;20062;-80
2022/09/23 12:09:35;;;;;;;2.75;0.90;;;18.70;92.90;;;17.71;47.61;101433.53;4881194;29;20036;-80
2022/09/23 12:12:34;;;;;;;4.05;1.10;;;18.50;93.30;;;17.56;47.45;101431.88;4934954;28;20108;-80
2022/09/23 12:15:52;;;;;;;8.18;1.27;;;18.40;92.50;;;17.40;47.44;101421.34;4923534;29;20035;-82
2022/09/23 12:18:55;;;;;;;1.73;1.00;;;18.30;93.60;;;17.42;47.80;101416.78;4905649;29;20078;-81
2022/09/23 12:21:55;;;;;;;1.08;0.60;;;18.40;93.60;;;17.60;47.80;101414.72;4947547;28;20039;-82
2022/09/23 12:24:42;;;;;;;2.97;0.80;;;18.40;93.30;;;17.76;46.94;101414.59;4954299;28;20122;-81
2022/09/23 12:27:47;;;;;;;2.85;0.93;;;18.50;91.90;;;17.75;45.83;101408.41;4958535;28;20035;-81
2022/09/23 12:30:23;;;;;;;1.23;0.63;;;18.40;92.20;;;17.71;46.43;101398.03;4941563;28;20027;-80
2022/09/23 12:32:49;;;;;;;1.48;0.73;;;18.40;92.90;;;17.69;47.31;101402.59;4938816;29;20067;-80
2022/09/23 12:35:26;;;;;;;1.98;0.70;;;18.40;93.70;;;17.75;47.44;101389.78;4937064;28;20031;-79
2022/09/23 12:37:52;;;;;;;1.48;0.95;;;18.50;94.10;;;17.79;48.61;101390.41;4948413;29;20063;-81
2022/09/23 12:40:40;;;;;;;1.83;1.10;;;18.50;94.10;;;17.75;49.07;101383.56;4955151;28;20517;-79
2022/09/23 12:43:48;;;;;;;2.67;0.82;;;18.50;94.40;;;17.80;48.58;101387.66;4939119;28;20047;-77
2022/09/23 12:46:26;;;;;;;1.77;0.70;;;18.50;94.00;;;17.82;48.89;101379.59;4956118;28;20030;-79
2022/09/23 12:48:58;;;;;;;1.52;0.80;;;18.60;94.30;;;17.83;48.29;101376.81;4941447;28;20393;-78
2022/09/23 12:51:35;;;;;;;2.70;1.00;;;18.60;93.00;;;17.59;47.93;101379.25;4971761;23;20145;-81
2022/09/23 12:54:04;;;;;;;1.52;0.75;;;18.60;93.70;;;17.71;47.99;101379.38;4922820;29;20054;-81
2022/09/23 12:56:41;;;;;;;2.20;0.90;;;18.60;94.10;;;17.79;48.06;101366.44;4955671;28;20419;-81
2022/09/23 12:59:27;;;;;;;2.53;0.88;;;18.50;94.40;;;17.72;48.98;101373.97;4953900;28;20023;-81
2022/09/23 13:02:36;;;;;;;3.08;1.20;;;18.60;93.80;;;17.83;48.45;101373.28;4971072;28;20100;-80
2022/09/23 13:08:16;;;;;;;2.50;0.70;;;18.70;93.20;;;18.01;46.62;101366.75;4955510;28;20049;-81
2022/09/23 13:10:48;;;;;;;1.55;0.80;;;18.70;92.70;;;17.94;46.31;101361.91;4961009;28;20031;-80
2022/09/23 13:13:59;;;;;;;2.55;0.70;;;18.60;93.50;;;17.82;47.89;101352.94;4968027;28;20027;-80
2022/09/23 13:16:43;;;;;;;1.30;0.70;;;18.60;93.80;;;17.94;48.16;101353.91;4948060;29;20047;-80
2022/09/23 13:19:27;;;;;;;2.25;0.88;;;18.70;94.40;;;18.02;47.70;101340.94;4956152;28;20614;-81
2022/09/23 13:22:06;;;;;;;3.97;0.90;;;18.80;94.20;;;18.16;48.03;101342.66;4969554;28;20385;-80
2022/09/23 13:24:44;;;;;;;1.80;1.00;;;18.80;93.40;;;18.09;48.25;101347.53;4955806;29;20037;-80
2022/09/23 13:27:35;;;;;;;3.97;0.98;;;18.90;93.80;;;18.19;47.89;101337.97;4956356;28;20035;-81
2022/09/23 13:30:15;;;;;;;1.58;1.00;;;19.00;94.20;;;18.39;48.65;101339.25;4954539;29;20051;-80
2022/09/23 13:32:52;;;;;;;1.35;0.93;;;19.20;93.80;;;18.58;47.85;101333.47;4937054;29;20035;-81
2022/09/23 13:35:26;;;;;;;3.45;0.98;;;19.40;93.00;;;18.82;46.64;101332.72;4937451;29;20034;-81
2022/09/23 13:37:52;;;;;;;7.63;1.00;;;19.50;93.10;;;18.96;46.64;101340.59;4937896;28;20033;-81
2022/09/23 13:40:26;;;;;;;1.02;0.70;;;19.70;92.50;;;19.21;45.88;101338.81;4955587;29;20497;-81
2022/09/23 13:43:06;;;;;;;2.92;0.70;;;19.90;91.40;;;19.34;43.66;101334.25;4953099;28;20035;-81
2022/09/23 13:45:40;;;;;;;5.00;0.88;;;20.00;90.90;;;19.33;44.20;101329.03;4957337;28;20592;-81
2022/09/23 13:48:12;;;;;;;2.17;0.70;;;20.00;91.00;;;19.40;44.16;101335.63;4939236;29;20038;-81